sensor_id;sensor_type;location;lat;lon;timestamp;P1;durP1;ratioP1;P2;durP2;ratioP2
71288;SDS011;59068;52.502;9.860;2023-07-31T00:00:10;4.60;;;4.20;;
71288;SDS011;59068;52.502;9.860;2023-07-31T00:02:37;4.27;;;3.90;;
71288;SDS011;59068;52.502;9.860;2023-07-31T00:05:04;5.17;;;4.30;;
71288;SDS011;59068;52.502;9.860;2023-07-31T00:07:33;4.80;;;4.40;;
71288;SDS011;59068;52.502;9.860;2023-07-31T00:09:59;4.77;;;4.37;;
71288;SDS011;59068;52.502;9.860;2023-07-31T00:12:26;4.40;;;4.00;;
71288;SDS011;59068;52.502;9.860;2023-07-31T00:14:52;4.43;;;4.00;;
71288;SDS011;59068;52.502;9.860;2023-07-31T00:17:19;4.13;;;3.73;;
71288;SDS011;59068;52.502;9.860;2023-07-31T00:19:46;4.07;;;3.67;;
71288;SDS011;59068;52.502;9.860;2023-07-31T00:22:14;3.90;;;3.57;;
71288;SDS011;59068;52.502;9.860;2023-07-31T00:24:42;3.47;;;3.17;;
71288;SDS011;59068;52.502;9.860;2023-07-31T00:27:08;3.60;;;3.30;;
71288;SDS011;59068;52.502;9.860;2023-07-31T00:29:35;5.73;;;3.60;;
71288;SDS011;59068;52.502;9.860;2023-07-31T00:32:02;4.00;;;3.70;;
71288;SDS011;59068;52.502;9.860;2023-07-31T00:34:29;3.47;;;3.17;;
71288;SDS011;59068;52.502;9.860;2023-07-31T00:36:55;4.87;;;3.70;;
71288;SDS011;59068;52.502;9.860;2023-07-31T00:39:22;3.90;;;3.50;;
71288;SDS011;59068;52.502;9.860;2023-07-31T00:41:50;3.50;;;3.17;;
71288;SDS011;59068;52.502;9.860;2023-07-31T00:44:17;3.43;;;3.13;;
71288;SDS011;59068;52.502;9.860;2023-07-31T00:46:43;3.47;;;3.27;;
71288;SDS011;59068;52.502;9.860;2023-07-31T00:49:10;4.27;;;3.30;;
71288;SDS011;59068;52.502;9.860;2023-07-31T00:51:37;3.10;;;2.73;;
71288;SDS011;59068;52.502;9.860;2023-07-31T00:54:03;3.73;;;3.17;;
71288;SDS011;59068;52.502;9.860;2023-07-31T00:56:30;3.77;;;3.37;;
71288;SDS011;59068;52.502;9.860;2023-07-31T00:58:58;3.50;;;2.93;;
71288;SDS011;59068;52.502;9.860;2023-07-31T01:01:25;3.20;;;2.90;;
71288;SDS011;59068;52.502;9.860;2023-07-31T01:03:51;4.90;;;2.90;;
71288;SDS011;59068;52.502;9.860;2023-07-31T01:06:22;3.70;;;3.40;;
71288;SDS011;59068;52.502;9.860;2023-07-31T01:08:52;4.13;;;3.17;;
71288;SDS011;59068;52.502;9.860;2023-07-31T01:11:24;4.13;;;2.80;;
71288;SDS011;59068;52.502;9.860;2023-07-31T01:13:52;4.23;;;2.70;;
71288;SDS011;59068;52.502;9.860;2023-07-31T01:16:20;3.10;;;2.80;;
71288;SDS011;59068;52.502;9.860;2023-07-31T01:18:47;4.13;;;2.67;;
71288;SDS011;59068;52.502;9.860;2023-07-31T01:21:19;2.90;;;2.70;;
71288;SDS011;59068;52.502;9.860;2023-07-31T01:23:57;2.83;;;2.63;;
71288;SDS011;59068;52.502;9.860;2023-07-31T01:26:55;2.90;;;2.70;;
71288;SDS011;59068;52.502;9.860;2023-07-31T01:29:25;4.37;;;2.80;;
71288;SDS011;59068;52.502;9.860;2023-07-31T01:31:56;3.83;;;2.63;;
71288;SDS011;59068;52.502;9.860;2023-07-31T01:34:23;3.10;;;2.80;;
71288;SDS011;59068;52.502;9.860;2023-07-31T01:36:50;3.03;;;2.53;;
71288;SDS011;59068;52.502;9.860;2023-07-31T01:39:17;2.97;;;2.40;;
71288;SDS011;59068;52.502;9.860;2023-07-31T01:41:46;2.67;;;2.43;;
71288;SDS011;59068;52.502;9.860;2023-07-31T01:44:14;3.00;;;2.60;;
71288;SDS011;59068;52.502;9.860;2023-07-31T01:46:41;2.40;;;2.17;;
71288;SDS011;59068;52.502;9.860;2023-07-31T01:49:07;2.53;;;2.33;;
71288;SDS011;59068;52.502;9.860;2023-07-31T01:51:34;3.67;;;2.00;;
71288;SDS011;59068;52.502;9.860;2023-07-31T01:54:01;3.13;;;2.57;;
71288;SDS011;59068;52.502;9.860;2023-07-31T01:56:27;1.83;;;1.73;;
71288;SDS011;59068;52.502;9.860;2023-07-31T01:58:54;2.90;;;2.20;;
71288;SDS011;59068;52.502;9.860;2023-07-31T02:01:22;3.50;;;1.90;;
71288;SDS011;59068;52.502;9.860;2023-07-31T02:03:48;2.30;;;2.10;;
71288;SDS011;59068;52.502;9.860;2023-07-31T02:06:15;2.53;;;1.60;;
71288;SDS011;59068;52.502;9.860;2023-07-31T02:08:41;3.37;;;1.70;;
71288;SDS011;59068;52.502;9.860;2023-07-31T02:11:08;1.93;;;1.83;;
71288;SDS011;59068;52.502;9.860;2023-07-31T02:13:34;2.03;;;1.70;;
71288;SDS011;59068;52.502;9.860;2023-07-31T02:16:01;1.90;;;1.63;;
71288;SDS011;59068;52.502;9.860;2023-07-31T02:18:29;1.83;;;1.47;;
71288;SDS011;59068;52.502;9.860;2023-07-31T02:20:55;2.63;;;1.70;;
71288;SDS011;59068;52.502;9.860;2023-07-31T02:23:22;2.10;;;1.90;;
71288;SDS011;59068;52.502;9.860;2023-07-31T02:25:48;1.53;;;1.43;;
71288;SDS011;59068;52.502;9.860;2023-07-31T02:28:15;1.63;;;1.53;;
71288;SDS011;59068;52.502;9.860;2023-07-31T02:30:43;1.90;;;1.37;;
71288;SDS011;59068;52.502;9.860;2023-07-31T02:33:10;2.73;;;1.30;;
71288;SDS011;59068;52.502;9.860;2023-07-31T02:35:38;1.97;;;1.30;;
71288;SDS011;59068;52.502;9.860;2023-07-31T02:38:05;1.63;;;1.53;;
71288;SDS011;59068;52.502;9.860;2023-07-31T02:40:31;1.50;;;1.30;;
71288;SDS011;59068;52.502;9.860;2023-07-31T02:42:58;2.43;;;1.13;;
71288;SDS011;59068;52.502;9.860;2023-07-31T02:45:24;2.43;;;1.40;;
71288;SDS011;59068;52.502;9.860;2023-07-31T02:47:51;1.40;;;1.30;;
71288;SDS011;59068;52.502;9.860;2023-07-31T02:50:18;1.33;;;1.10;;
71288;SDS011;59068;52.502;9.860;2023-07-31T02:52:46;1.73;;;1.30;;
71288;SDS011;59068;52.502;9.860;2023-07-31T02:55:12;1.40;;;1.30;;
71288;SDS011;59068;52.502;9.860;2023-07-31T02:57:39;1.47;;;1.00;;
71288;SDS011;59068;52.502;9.860;2023-07-31T03:00:06;1.67;;;1.00;;
71288;SDS011;59068;52.502;9.860;2023-07-31T03:02:34;2.23;;;1.10;;
71288;SDS011;59068;52.502;9.860;2023-07-31T03:05:01;1.77;;;1.00;;
71288;SDS011;59068;52.502;9.860;2023-07-31T03:07:27;1.00;;;0.87;;
71288;SDS011;59068;52.502;9.860;2023-07-31T03:09:56;1.13;;;1.03;;
71288;SDS011;59068;52.502;9.860;2023-07-31T03:12:23;1.60;;;0.97;;
71288;SDS011;59068;52.502;9.860;2023-07-31T03:14:49;1.03;;;1.00;;
71288;SDS011;59068;52.502;9.860;2023-07-31T03:17:16;1.43;;;1.20;;
71288;SDS011;59068;52.502;9.860;2023-07-31T03:19:42;1.13;;;1.03;;
71288;SDS011;59068;52.502;9.860;2023-07-31T03:22:09;1.43;;;0.90;;
71288;SDS011;59068;52.502;9.860;2023-07-31T03:24:36;1.37;;;1.00;;
71288;SDS011;59068;52.502;9.860;2023-07-31T03:27:04;1.07;;;0.90;;
71288;SDS011;59068;52.502;9.860;2023-07-31T03:29:31;2.70;;;0.90;;
71288;SDS011;59068;52.502;9.860;2023-07-31T03:31:58;2.17;;;0.73;;
71288;SDS011;59068;52.502;9.860;2023-07-31T03:34:25;0.90;;;0.90;;
71288;SDS011;59068;52.502;9.860;2023-07-31T03:36:51;1.00;;;0.90;;
71288;SDS011;59068;52.502;9.860;2023-07-31T03:39:18;1.30;;;0.83;;
71288;SDS011;59068;52.502;9.860;2023-07-31T03:41:44;1.20;;;1.10;;
71288;SDS011;59068;52.502;9.860;2023-07-31T03:44:12;1.10;;;1.00;;
71288;SDS011;59068;52.502;9.860;2023-07-31T03:46:39;1.17;;;1.07;;
71288;SDS011;59068;52.502;9.860;2023-07-31T03:49:05;1.13;;;1.10;;
71288;SDS011;59068;52.502;9.860;2023-07-31T03:51:32;1.40;;;1.30;;
71288;SDS011;59068;52.502;9.860;2023-07-31T03:53:58;1.57;;;1.00;;
71288;SDS011;59068;52.502;9.860;2023-07-31T03:56:25;1.53;;;1.20;;
71288;SDS011;59068;52.502;9.860;2023-07-31T03:58:52;1.37;;;1.27;;
71288;SDS011;59068;52.502;9.860;2023-07-31T04:01:20;3.30;;;1.67;;
71288;SDS011;59068;52.502;9.860;2023-07-31T04:03:47;2.13;;;1.67;;
71288;SDS011;59068;52.502;9.860;2023-07-31T04:06:14;1.80;;;1.70;;
71288;SDS011;59068;52.502;9.860;2023-07-31T04:08:43;2.03;;;1.80;;
71288;SDS011;59068;52.502;9.860;2023-07-31T04:11:09;1.97;;;1.70;;
71288;SDS011;59068;52.502;9.860;2023-07-31T04:13:36;2.03;;;1.50;;
71288;SDS011;59068;52.502;9.860;2023-07-31T04:16:03;1.67;;;1.57;;
71288;SDS011;59068;52.502;9.860;2023-07-31T04:18:31;1.40;;;1.30;;
71288;SDS011;59068;52.502;9.860;2023-07-31T04:20:58;1.83;;;1.23;;
71288;SDS011;59068;52.502;9.860;2023-07-31T04:23:26;1.53;;;1.23;;
71288;SDS011;59068;52.502;9.860;2023-07-31T04:25:52;1.50;;;1.40;;
71288;SDS011;59068;52.502;9.860;2023-07-31T04:28:19;2.07;;;1.20;;
71288;SDS011;59068;52.502;9.860;2023-07-31T04:30:46;1.20;;;1.03;;
71288;SDS011;59068;52.502;9.860;2023-07-31T04:33:13;1.50;;;1.40;;
71288;SDS011;59068;52.502;9.860;2023-07-31T04:35:41;2.37;;;1.20;;
71288;SDS011;59068;52.502;9.860;2023-07-31T04:38:07;1.13;;;1.07;;
71288;SDS011;59068;52.502;9.860;2023-07-31T04:40:34;1.20;;;1.20;;
71288;SDS011;59068;52.502;9.860;2023-07-31T04:43:00;1.47;;;1.37;;
71288;SDS011;59068;52.502;9.860;2023-07-31T04:45:27;1.27;;;1.27;;
71288;SDS011;59068;52.502;9.860;2023-07-31T04:47:53;1.10;;;1.00;;
71288;SDS011;59068;52.502;9.860;2023-07-31T04:50:20;3.40;;;1.50;;
71288;SDS011;59068;52.502;9.860;2023-07-31T04:52:48;1.70;;;1.27;;
71288;SDS011;59068;52.502;9.860;2023-07-31T04:55:14;1.13;;;1.13;;
71288;SDS011;59068;52.502;9.860;2023-07-31T04:57:41;1.23;;;1.13;;
71288;SDS011;59068;52.502;9.860;2023-07-31T05:00:08;1.03;;;1.03;;
71288;SDS011;59068;52.502;9.860;2023-07-31T05:02:35;1.37;;;1.30;;
71288;SDS011;59068;52.502;9.860;2023-07-31T05:05:02;0.90;;;0.90;;
71288;SDS011;59068;52.502;9.860;2023-07-31T05:07:29;1.23;;;1.13;;
71288;SDS011;59068;52.502;9.860;2023-07-31T05:09:57;1.20;;;1.00;;
71288;SDS011;59068;52.502;9.860;2023-07-31T05:12:23;1.60;;;1.00;;
71288;SDS011;59068;52.502;9.860;2023-07-31T05:14:50;0.90;;;0.90;;
71288;SDS011;59068;52.502;9.860;2023-07-31T05:17:17;1.43;;;1.33;;
71288;SDS011;59068;52.502;9.860;2023-07-31T05:19:43;2.20;;;1.80;;
71288;SDS011;59068;52.502;9.860;2023-07-31T05:22:10;3.63;;;2.30;;
71288;SDS011;59068;52.502;9.860;2023-07-31T05:24:36;3.27;;;2.20;;
71288;SDS011;59068;52.502;9.860;2023-07-31T05:27:05;2.63;;;1.50;;
71288;SDS011;59068;52.502;9.860;2023-07-31T05:29:32;2.33;;;1.60;;
71288;SDS011;59068;52.502;9.860;2023-07-31T05:31:59;1.30;;;0.83;;
71288;SDS011;59068;52.502;9.860;2023-07-31T05:34:25;1.40;;;0.67;;
71288;SDS011;59068;52.502;9.860;2023-07-31T05:36:52;0.53;;;0.53;;
71288;SDS011;59068;52.502;9.860;2023-07-31T05:39:18;1.40;;;0.70;;
71288;SDS011;59068;52.502;9.860;2023-07-31T05:41:45;0.87;;;0.73;;
71288;SDS011;59068;52.502;9.860;2023-07-31T05:44:13;0.83;;;0.83;;
71288;SDS011;59068;52.502;9.860;2023-07-31T05:46:39;1.50;;;0.70;;
71288;SDS011;59068;52.502;9.860;2023-07-31T05:49:06;1.23;;;0.80;;
71288;SDS011;59068;52.502;9.860;2023-07-31T05:51:33;1.00;;;1.00;;
71288;SDS011;59068;52.502;9.860;2023-07-31T05:54:00;0.90;;;0.90;;
71288;SDS011;59068;52.502;9.860;2023-07-31T05:56:26;0.70;;;0.70;;
71288;SDS011;59068;52.502;9.860;2023-07-31T05:58:53;0.73;;;0.70;;
71288;SDS011;59068;52.502;9.860;2023-07-31T06:01:21;1.07;;;0.60;;
71288;SDS011;59068;52.502;9.860;2023-07-31T06:03:47;1.23;;;1.10;;
71288;SDS011;59068;52.502;9.860;2023-07-31T06:06:14;1.20;;;1.03;;
71288;SDS011;59068;52.502;9.860;2023-07-31T06:08:40;1.23;;;1.13;;
71288;SDS011;59068;52.502;9.860;2023-07-31T06:11:07;1.50;;;1.40;;
71288;SDS011;59068;52.502;9.860;2023-07-31T06:13:34;1.50;;;1.40;;
71288;SDS011;59068;52.502;9.860;2023-07-31T06:16:01;1.60;;;1.30;;
71288;SDS011;59068;52.502;9.860;2023-07-31T06:18:31;2.67;;;2.13;;
71288;SDS011;59068;52.502;9.860;2023-07-31T06:20:58;1.67;;;1.40;;
71288;SDS011;59068;52.502;9.860;2023-07-31T06:23:25;3.37;;;2.00;;
71288;SDS011;59068;52.502;9.860;2023-07-31T06:25:51;1.93;;;1.60;;
71288;SDS011;59068;52.502;9.860;2023-07-31T06:28:18;2.53;;;2.33;;
71288;SDS011;59068;52.502;9.860;2023-07-31T06:30:44;3.27;;;2.97;;
71288;SDS011;59068;52.502;9.860;2023-07-31T06:33:11;3.67;;;2.73;;
71288;SDS011;59068;52.502;9.860;2023-07-31T06:35:39;4.67;;;3.97;;
71288;SDS011;59068;52.502;9.860;2023-07-31T06:38:06;3.93;;;3.63;;
71288;SDS011;59068;52.502;9.860;2023-07-31T06:40:32;5.47;;;4.53;;
71288;SDS011;59068;52.502;9.860;2023-07-31T06:42:59;5.03;;;4.63;;
71288;SDS011;59068;52.502;9.860;2023-07-31T06:45:31;4.83;;;4.43;;
71288;SDS011;59068;52.502;9.860;2023-07-31T06:47:58;5.90;;;5.30;;
71288;SDS011;59068;52.502;9.860;2023-07-31T06:50:30;6.33;;;5.77;;
71288;SDS011;59068;52.502;9.860;2023-07-31T06:52:58;7.23;;;6.53;;
71288;SDS011;59068;52.502;9.860;2023-07-31T06:55:25;6.83;;;5.67;;
71288;SDS011;59068;52.502;9.860;2023-07-31T06:57:52;8.23;;;7.13;;
71288;SDS011;59068;52.502;9.860;2023-07-31T07:00:20;7.67;;;6.57;;
71288;SDS011;59068;52.502;9.860;2023-07-31T07:02:47;7.47;;;6.60;;
71288;SDS011;59068;52.502;9.860;2023-07-31T07:05:14;8.17;;;5.17;;
71288;SDS011;59068;52.502;9.860;2023-07-31T07:07:41;8.07;;;6.57;;
71288;SDS011;59068;52.502;9.860;2023-07-31T07:10:11;7.43;;;6.47;;
71288;SDS011;59068;52.502;9.860;2023-07-31T07:12:40;8.00;;;7.10;;
71288;SDS011;59068;52.502;9.860;2023-07-31T07:15:06;7.90;;;7.10;;
71288;SDS011;59068;52.502;9.860;2023-07-31T07:17:34;8.40;;;7.60;;
71288;SDS011;59068;52.502;9.860;2023-07-31T07:20:00;9.00;;;7.50;;
71288;SDS011;59068;52.502;9.860;2023-07-31T07:22:28;8.70;;;7.77;;
71288;SDS011;59068;52.502;9.860;2023-07-31T07:24:55;9.20;;;8.10;;
71288;SDS011;59068;52.502;9.860;2023-07-31T07:27:23;10.83;;;8.77;;
71288;SDS011;59068;52.502;9.860;2023-07-31T07:29:50;10.60;;;8.03;;
71288;SDS011;59068;52.502;9.860;2023-07-31T07:32:16;10.23;;;8.07;;
71288;SDS011;59068;52.502;9.860;2023-07-31T07:34:43;9.47;;;7.30;;
71288;SDS011;59068;52.502;9.860;2023-07-31T07:37:11;10.33;;;8.07;;
71288;SDS011;59068;52.502;9.860;2023-07-31T07:39:37;9.53;;;7.90;;
71288;SDS011;59068;52.502;9.860;2023-07-31T07:42:04;9.40;;;7.33;;
71288;SDS011;59068;52.502;9.860;2023-07-31T07:44:32;9.00;;;7.10;;
71288;SDS011;59068;52.502;9.860;2023-07-31T07:46:59;10.30;;;8.00;;
71288;SDS011;59068;52.502;9.860;2023-07-31T07:49:26;14.27;;;8.70;;
71288;SDS011;59068;52.502;9.860;2023-07-31T07:51:52;8.73;;;7.83;;
71288;SDS011;59068;52.502;9.860;2023-07-31T07:54:19;9.37;;;7.93;;
71288;SDS011;59068;52.502;9.860;2023-07-31T07:56:47;9.83;;;7.80;;
71288;SDS011;59068;52.502;9.860;2023-07-31T07:59:14;11.30;;;8.50;;
71288;SDS011;59068;52.502;9.860;2023-07-31T08:01:42;9.63;;;7.90;;
71288;SDS011;59068;52.502;9.860;2023-07-31T08:04:09;8.97;;;7.20;;
71288;SDS011;59068;52.502;9.860;2023-07-31T08:06:35;10.93;;;7.57;;
71288;SDS011;59068;52.502;9.860;2023-07-31T08:09:02;8.40;;;7.03;;
71288;SDS011;59068;52.502;9.860;2023-07-31T08:11:31;7.97;;;7.17;;
71288;SDS011;59068;52.502;9.860;2023-07-31T08:13:57;9.63;;;8.17;;
71288;SDS011;59068;52.502;9.860;2023-07-31T08:16:24;8.50;;;7.60;;
71288;SDS011;59068;52.502;9.860;2023-07-31T08:18:52;9.23;;;8.23;;
71288;SDS011;59068;52.502;9.860;2023-07-31T08:21:19;9.23;;;7.83;;
71288;SDS011;59068;52.502;9.860;2023-07-31T08:23:45;7.73;;;6.53;;
71288;SDS011;59068;52.502;9.860;2023-07-31T08:26:14;8.40;;;6.60;;
71288;SDS011;59068;52.502;9.860;2023-07-31T08:28:41;9.60;;;6.97;;
71288;SDS011;59068;52.502;9.860;2023-07-31T08:31:07;8.20;;;6.37;;
71288;SDS011;59068;52.502;9.860;2023-07-31T08:33:34;8.20;;;6.23;;
71288;SDS011;59068;52.502;9.860;2023-07-31T08:36:02;6.77;;;5.80;;
71288;SDS011;59068;52.502;9.860;2023-07-31T08:38:29;9.53;;;6.30;;
71288;SDS011;59068;52.502;9.860;2023-07-31T08:40:56;6.70;;;5.80;;
71288;SDS011;59068;52.502;9.860;2023-07-31T08:43:23;7.97;;;5.87;;
71288;SDS011;59068;52.502;9.860;2023-07-31T08:45:51;8.47;;;6.03;;
71288;SDS011;59068;52.502;9.860;2023-07-31T08:48:18;9.43;;;6.00;;
71288;SDS011;59068;52.502;9.860;2023-07-31T08:50:45;8.27;;;6.20;;
71288;SDS011;59068;52.502;9.860;2023-07-31T08:53:13;7.47;;;5.20;;
71288;SDS011;59068;52.502;9.860;2023-07-31T08:55:40;6.87;;;5.17;;
71288;SDS011;59068;52.502;9.860;2023-07-31T08:58:06;8.77;;;5.27;;
71288;SDS011;59068;52.502;9.860;2023-07-31T09:00:33;5.73;;;5.03;;
71288;SDS011;59068;52.502;9.860;2023-07-31T09:03:02;7.57;;;5.13;;
71288;SDS011;59068;52.502;9.860;2023-07-31T09:05:30;7.53;;;5.30;;
71288;SDS011;59068;52.502;9.860;2023-07-31T09:07:58;8.37;;;5.20;;
71288;SDS011;59068;52.502;9.860;2023-07-31T09:10:27;6.17;;;5.53;;
71288;SDS011;59068;52.502;9.860;2023-07-31T09:12:54;7.83;;;5.20;;
71288;SDS011;59068;52.502;9.860;2023-07-31T09:15:21;6.90;;;5.10;;
71288;SDS011;59068;52.502;9.860;2023-07-31T09:17:48;7.70;;;5.60;;
71288;SDS011;59068;52.502;9.860;2023-07-31T09:20:25;6.40;;;4.90;;
71288;SDS011;59068;52.502;9.860;2023-07-31T09:22:52;7.20;;;4.70;;
71288;SDS011;59068;52.502;9.860;2023-07-31T09:25:19;8.40;;;5.57;;
71288;SDS011;59068;52.502;9.860;2023-07-31T09:27:48;7.87;;;5.10;;
71288;SDS011;59068;52.502;9.860;2023-07-31T09:30:15;7.90;;;5.80;;
71288;SDS011;59068;52.502;9.860;2023-07-31T09:32:42;7.33;;;5.93;;
71288;SDS011;59068;52.502;9.860;2023-07-31T09:35:19;6.63;;;5.40;;
71288;SDS011;59068;52.502;9.860;2023-07-31T09:37:50;5.30;;;4.83;;
71288;SDS011;59068;52.502;9.860;2023-07-31T09:40:27;6.17;;;5.50;;
71288;SDS011;59068;52.502;9.860;2023-07-31T09:43:00;6.33;;;5.33;;
71288;SDS011;59068;52.502;9.860;2023-07-31T09:45:27;6.80;;;5.63;;
71288;SDS011;59068;52.502;9.860;2023-07-31T09:47:54;6.23;;;5.07;;
71288;SDS011;59068;52.502;9.860;2023-07-31T09:50:21;5.50;;;4.80;;
71288;SDS011;59068;52.502;9.860;2023-07-31T09:52:48;5.10;;;4.43;;
71288;SDS011;59068;52.502;9.860;2023-07-31T09:55:15;5.27;;;4.77;;
71288;SDS011;59068;52.502;9.860;2023-07-31T09:57:43;4.77;;;4.37;;
71288;SDS011;59068;52.502;9.860;2023-07-31T10:00:12;4.63;;;4.23;;
71288;SDS011;59068;52.502;9.860;2023-07-31T10:02:41;6.50;;;4.47;;
71288;SDS011;59068;52.502;9.860;2023-07-31T10:05:08;5.37;;;4.40;;
71288;SDS011;59068;52.502;9.860;2023-07-31T10:07:36;6.00;;;4.23;;
71288;SDS011;59068;52.502;9.860;2023-07-31T10:10:04;4.03;;;3.73;;
71288;SDS011;59068;52.502;9.860;2023-07-31T10:12:31;4.40;;;3.43;;
71288;SDS011;59068;52.502;9.860;2023-07-31T10:14:59;3.37;;;3.07;;
71288;SDS011;59068;52.502;9.860;2023-07-31T10:17:27;4.13;;;3.43;;
71288;SDS011;59068;52.502;9.860;2023-07-31T10:19:56;3.80;;;3.33;;
71288;SDS011;59068;52.502;9.860;2023-07-31T10:22:24;4.07;;;3.40;;
71288;SDS011;59068;52.502;9.860;2023-07-31T10:24:51;3.70;;;3.23;;
71288;SDS011;59068;52.502;9.860;2023-07-31T10:27:18;2.70;;;2.50;;
71288;SDS011;59068;52.502;9.860;2023-07-31T10:29:45;3.20;;;2.93;;
71288;SDS011;59068;52.502;9.860;2023-07-31T10:32:14;3.27;;;2.40;;
71288;SDS011;59068;52.502;9.860;2023-07-31T10:34:43;2.80;;;2.50;;
71288;SDS011;59068;52.502;9.860;2023-07-31T10:37:19;2.83;;;2.30;;
71288;SDS011;59068;52.502;9.860;2023-07-31T10:39:54;3.07;;;2.60;;
71288;SDS011;59068;52.502;9.860;2023-07-31T10:42:27;2.53;;;2.33;;
71288;SDS011;59068;52.502;9.860;2023-07-31T10:44:55;2.30;;;2.10;;
71288;SDS011;59068;52.502;9.860;2023-07-31T10:47:23;2.33;;;2.13;;
71288;SDS011;59068;52.502;9.860;2023-07-31T10:49:51;3.77;;;2.30;;
71288;SDS011;59068;52.502;9.860;2023-07-31T10:52:19;2.30;;;2.10;;
71288;SDS011;59068;52.502;9.860;2023-07-31T10:54:48;2.33;;;2.10;;
71288;SDS011;59068;52.502;9.860;2023-07-31T10:57:21;2.53;;;1.80;;
71288;SDS011;59068;52.502;9.860;2023-07-31T10:59:49;2.33;;;1.60;;
71288;SDS011;59068;52.502;9.860;2023-07-31T11:02:24;1.90;;;1.70;;
71288;SDS011;59068;52.502;9.860;2023-07-31T11:05:09;1.70;;;1.60;;
71288;SDS011;59068;52.502;9.860;2023-07-31T11:07:48;2.20;;;1.47;;
71288;SDS011;59068;52.502;9.860;2023-07-31T11:10:17;3.37;;;1.87;;
71288;SDS011;59068;52.502;9.860;2023-07-31T11:12:45;3.37;;;1.93;;
71288;SDS011;59068;52.502;9.860;2023-07-31T11:15:12;2.40;;;1.70;;
71288;SDS011;59068;52.502;9.860;2023-07-31T11:17:39;1.90;;;1.77;;
71288;SDS011;59068;52.502;9.860;2023-07-31T11:20:06;1.83;;;1.73;;
71288;SDS011;59068;52.502;9.860;2023-07-31T11:22:35;2.00;;;1.80;;
71288;SDS011;59068;52.502;9.860;2023-07-31T11:25:02;3.03;;;2.13;;
71288;SDS011;59068;52.502;9.860;2023-07-31T11:27:29;1.80;;;1.70;;
71288;SDS011;59068;52.502;9.860;2023-07-31T11:30:00;1.73;;;1.63;;
71288;SDS011;59068;52.502;9.860;2023-07-31T11:32:27;1.70;;;1.60;;
71288;SDS011;59068;52.502;9.860;2023-07-31T11:34:54;2.03;;;1.90;;
71288;SDS011;59068;52.502;9.860;2023-07-31T11:37:22;2.10;;;1.90;;
71288;SDS011;59068;52.502;9.860;2023-07-31T11:39:59;2.13;;;1.93;;
71288;SDS011;59068;52.502;9.860;2023-07-31T11:42:26;2.40;;;1.63;;
71288;SDS011;59068;52.502;9.860;2023-07-31T11:44:53;2.07;;;1.87;;
71288;SDS011;59068;52.502;9.860;2023-07-31T11:47:19;2.13;;;1.93;;
71288;SDS011;59068;52.502;9.860;2023-07-31T11:49:46;1.80;;;1.70;;
71288;SDS011;59068;52.502;9.860;2023-07-31T11:52:13;2.07;;;1.80;;
71288;SDS011;59068;52.502;9.860;2023-07-31T11:54:41;1.60;;;1.50;;
71288;SDS011;59068;52.502;9.860;2023-07-31T11:57:07;1.63;;;1.50;;
71288;SDS011;59068;52.502;9.860;2023-07-31T11:59:34;1.90;;;1.70;;
71288;SDS011;59068;52.502;9.860;2023-07-31T12:02:01;1.90;;;1.63;;
71288;SDS011;59068;52.502;9.860;2023-07-31T12:04:28;2.90;;;1.83;;
71288;SDS011;59068;52.502;9.860;2023-07-31T12:06:54;1.50;;;1.40;;
71288;SDS011;59068;52.502;9.860;2023-07-31T12:09:21;2.20;;;1.80;;
71288;SDS011;59068;52.502;9.860;2023-07-31T12:11:50;2.83;;;1.90;;
71288;SDS011;59068;52.502;9.860;2023-07-31T12:14:19;1.93;;;1.73;;
71288;SDS011;59068;52.502;9.860;2023-07-31T12:16:47;1.80;;;1.70;;
71288;SDS011;59068;52.502;9.860;2023-07-31T12:19:13;2.03;;;1.80;;
71288;SDS011;59068;52.502;9.860;2023-07-31T12:21:40;2.00;;;1.80;;
71288;SDS011;59068;52.502;9.860;2023-07-31T12:24:07;3.00;;;1.50;;
71288;SDS011;59068;52.502;9.860;2023-07-31T12:26:34;1.67;;;1.53;;
71288;SDS011;59068;52.502;9.860;2023-07-31T12:29:02;2.40;;;1.40;;
71288;SDS011;59068;52.502;9.860;2023-07-31T12:31:33;1.63;;;1.53;;
71288;SDS011;59068;52.502;9.860;2023-07-31T12:34:01;3.60;;;2.07;;
71288;SDS011;59068;52.502;9.860;2023-07-31T12:36:28;2.03;;;1.70;;
71288;SDS011;59068;52.502;9.860;2023-07-31T12:38:57;2.17;;;1.97;;
71288;SDS011;59068;52.502;9.860;2023-07-31T12:41:24;1.90;;;1.57;;
71288;SDS011;59068;52.502;9.860;2023-07-31T12:43:50;1.93;;;1.83;;
71288;SDS011;59068;52.502;9.860;2023-07-31T12:46:18;2.60;;;2.27;;
71288;SDS011;59068;52.502;9.860;2023-07-31T12:48:45;1.83;;;1.73;;
71288;SDS011;59068;52.502;9.860;2023-07-31T12:51:11;2.40;;;2.20;;
71288;SDS011;59068;52.502;9.860;2023-07-31T12:53:38;1.87;;;1.70;;
71288;SDS011;59068;52.502;9.860;2023-07-31T12:56:04;2.30;;;2.10;;
71288;SDS011;59068;52.502;9.860;2023-07-31T12:58:31;2.20;;;2.00;;
71288;SDS011;59068;52.502;9.860;2023-07-31T13:00:58;2.90;;;2.70;;
71288;SDS011;59068;52.502;9.860;2023-07-31T13:03:25;2.00;;;1.90;;
71288;SDS011;59068;52.502;9.860;2023-07-31T13:05:52;1.93;;;1.83;;
71288;SDS011;59068;52.502;9.860;2023-07-31T13:08:18;4.60;;;4.00;;
71288;SDS011;59068;52.502;9.860;2023-07-31T13:10:45;1.07;;;1.07;;
71288;SDS011;59068;52.502;9.860;2023-07-31T13:13:12;1.40;;;1.30;;
71288;SDS011;59068;52.502;9.860;2023-07-31T13:15:38;1.20;;;1.10;;
71288;SDS011;59068;52.502;9.860;2023-07-31T13:18:05;0.97;;;0.97;;
71288;SDS011;59068;52.502;9.860;2023-07-31T13:20:33;0.93;;;0.90;;
71288;SDS011;59068;52.502;9.860;2023-07-31T13:22:59;1.30;;;1.20;;
71288;SDS011;59068;52.502;9.860;2023-07-31T13:25:26;1.20;;;1.10;;
71288;SDS011;59068;52.502;9.860;2023-07-31T13:27:53;1.20;;;1.10;;
71288;SDS011;59068;52.502;9.860;2023-07-31T13:30:19;0.83;;;0.83;;
71288;SDS011;59068;52.502;9.860;2023-07-31T13:32:46;1.00;;;0.90;;
71288;SDS011;59068;52.502;9.860;2023-07-31T13:35:12;1.10;;;0.90;;
71288;SDS011;59068;52.502;9.860;2023-07-31T13:37:41;1.20;;;0.90;;
71288;SDS011;59068;52.502;9.860;2023-07-31T13:40:07;0.80;;;0.80;;
71288;SDS011;59068;52.502;9.860;2023-07-31T13:42:35;2.10;;;0.63;;
71288;SDS011;59068;52.502;9.860;2023-07-31T13:45:02;0.80;;;0.80;;
71288;SDS011;59068;52.502;9.860;2023-07-31T13:47:29;1.20;;;0.97;;
71288;SDS011;59068;52.502;9.860;2023-07-31T13:49:56;0.90;;;0.90;;
71288;SDS011;59068;52.502;9.860;2023-07-31T13:52:22;2.00;;;1.00;;
71288;SDS011;59068;52.502;9.860;2023-07-31T13:54:50;1.10;;;0.83;;
71288;SDS011;59068;52.502;9.860;2023-07-31T13:57:17;0.90;;;0.70;;
71288;SDS011;59068;52.502;9.860;2023-07-31T13:59:43;0.90;;;0.90;;
71288;SDS011;59068;52.502;9.860;2023-07-31T14:02:10;0.77;;;0.77;;
71288;SDS011;59068;52.502;9.860;2023-07-31T14:04:37;1.47;;;0.77;;
71288;SDS011;59068;52.502;9.860;2023-07-31T14:07:03;0.77;;;0.77;;
71288;SDS011;59068;52.502;9.860;2023-07-31T14:09:30;0.50;;;0.50;;
71288;SDS011;59068;52.502;9.860;2023-07-31T14:11:58;1.30;;;0.80;;
71288;SDS011;59068;52.502;9.860;2023-07-31T14:14:25;0.60;;;0.60;;
71288;SDS011;59068;52.502;9.860;2023-07-31T14:16:51;0.70;;;0.70;;
71288;SDS011;59068;52.502;9.860;2023-07-31T14:19:18;0.60;;;0.60;;
71288;SDS011;59068;52.502;9.860;2023-07-31T14:21:45;1.40;;;0.77;;
71288;SDS011;59068;52.502;9.860;2023-07-31T14:24:12;0.77;;;0.77;;
71288;SDS011;59068;52.502;9.860;2023-07-31T14:26:38;0.60;;;0.60;;
71288;SDS011;59068;52.502;9.860;2023-07-31T14:29:06;1.03;;;0.70;;
71288;SDS011;59068;52.502;9.860;2023-07-31T14:31:33;0.73;;;0.73;;
71288;SDS011;59068;52.502;9.860;2023-07-31T14:33:59;1.43;;;0.70;;
71288;SDS011;59068;52.502;9.860;2023-07-31T14:36:26;1.53;;;0.63;;
71288;SDS011;59068;52.502;9.860;2023-07-31T14:38:52;0.70;;;0.70;;
71288;SDS011;59068;52.502;9.860;2023-07-31T14:41:19;0.77;;;0.77;;
71288;SDS011;59068;52.502;9.860;2023-07-31T14:43:45;0.83;;;0.83;;
71288;SDS011;59068;52.502;9.860;2023-07-31T14:46:13;1.40;;;1.30;;
71288;SDS011;59068;52.502;9.860;2023-07-31T14:48:40;1.23;;;1.10;;